Terminal Aerodrome Forecast
Issued by NWS

Home | Current Version | Previous Version | Text Only | Print | Product List | Glossary On
Versions: 1 2 3 4 5 6 7 8 9 10 11 12 13 14
000
FTUS46 KSTO 251300 AAA
TAFSAC
TAF AMD
KSAC 251301Z 2513/2612 24006KT P6SM SCT070
     FM251500 20010KT P6SM VCSH BKN040
     FM252000 28008KT P6SM BKN060=

USA.gov is the U.S. government's official web portal to all federal, state and local government web resources and services.